PH-0106 weather

Santa Rosa Airstrip
Concepcion, Tarlac Province, Philippines

Public forecast

Using degrees Celsius for public forecast. Weather courtesy of forecast.io.

METAR (pilot weather report)

Closest report is Diosdado Macapagal International Airport, 12.5 nm (23.2 km) SSW. Retrieved 2019/07/19 16:00 UTC (24 minutes ago):

RPLC 191600Z 34002KT 7000 SCT020 BKN100 26/25 Q1011 NOSIG RMK A2985

TAF (pilot weather forecast)

Closest forecast is Diosdado Macapagal International Airport, 12.5 nm (23.2 km) SSW. Retrieved 2019/07/19 12:03 UTC (4 hours ago):

TAF RPLC 191100Z 1912/2018 18008KT 9999 SCT020 BKN100 TX32/2006Z TN25/1921Z TEMPO 1912/1918 22007KT 6000 -TSRA FEW015CB SCT020 BKN100